createdAt,value
2022-08-05T00:01:20.574Z,21.05
2022-08-05T00:04:09.632Z,21.02
2022-08-05T00:06:53.756Z,20.99
2022-08-05T00:09:35.540Z,20.89
2022-08-05T00:12:17.057Z,20.87
2022-08-05T00:14:58.935Z,20.82
2022-08-05T00:17:53.771Z,20.78
2022-08-05T00:20:37.139Z,20.78
2022-08-05T00:23:30.790Z,20.76
2022-08-05T00:26:19.724Z,20.75
2022-08-05T00:29:00.168Z,20.74
2022-08-05T00:31:53.237Z,20.78
2022-08-05T00:35:04.018Z,20.75
2022-08-05T00:37:52.334Z,20.75
2022-08-05T00:40:34.471Z,20.69
2022-08-05T00:43:23.905Z,20.68
2022-08-05T00:46:05.055Z,20.72
2022-08-05T00:48:50.660Z,20.66
2022-08-05T00:51:51.945Z,20.66
2022-08-05T00:54:34.846Z,20.73
2022-08-05T00:57:14.288Z,20.72
2022-08-05T00:59:54.402Z,20.70
2022-08-05T01:02:46.646Z,20.68
2022-08-05T01:05:30.333Z,20.71
2022-08-05T01:08:40.453Z,20.67
2022-08-05T01:11:13.921Z,20.65
2022-08-05T01:14:08.827Z,20.52
2022-08-05T01:16:52.302Z,20.48
2022-08-05T01:20:02.479Z,20.46
2022-08-05T01:22:57.244Z,20.41
2022-08-05T01:25:53.303Z,20.34
2022-08-05T01:28:45.304Z,20.33
2022-08-05T01:31:29.061Z,20.32
2022-08-05T01:34:13.610Z,20.33
2022-08-05T01:37:00.535Z,20.30
2022-08-05T01:39:46.083Z,20.26
2022-08-05T01:42:30.764Z,20.29
2022-08-05T01:45:19.067Z,20.26
2022-08-05T01:48:01.516Z,20.24
2022-08-05T01:50:51.037Z,20.27
2022-08-05T01:53:57.723Z,20.22
2022-08-05T01:58:29.496Z,20.22
2022-08-05T01:59:47.049Z,20.17
2022-08-05T02:02:30.866Z,20.16
2022-08-05T02:05:13.412Z,20.04
2022-08-05T02:08:01.058Z,20.09
2022-08-05T02:10:44.560Z,20.11
2022-08-05T02:13:28.566Z,20.08
2022-08-05T02:16:32.768Z,19.73
2022-08-05T02:19:20.176Z,19.89
2022-08-05T02:22:07.018Z,19.92
2022-08-05T02:24:51.366Z,19.95
2022-08-05T02:27:58.498Z,19.90
2022-08-05T02:30:51.859Z,19.57
2022-08-05T02:33:38.801Z,19.61
2022-08-05T02:36:20.638Z,19.45
2022-08-05T02:39:09.155Z,19.60
2022-08-05T02:42:00.419Z,19.64
2022-08-05T02:44:41.683Z,19.66
2022-08-05T02:47:22.742Z,19.73
2022-08-05T02:50:03.757Z,19.77
2022-08-05T02:52:47.586Z,19.78
2022-08-05T02:55:53.959Z,19.79
2022-08-05T02:58:34.340Z,19.76
2022-08-05T03:01:19.722Z,19.77
2022-08-05T03:04:08.856Z,19.79
2022-08-05T03:06:53.646Z,19.79
2022-08-05T03:09:51.457Z,19.84
2022-08-05T03:12:36.079Z,19.84
2022-08-05T03:15:17.665Z,19.80
2022-08-05T03:17:59.526Z,19.76
2022-08-05T03:20:48.573Z,19.76
2022-08-05T03:23:29.902Z,19.73
2022-08-05T03:26:31.500Z,19.66
2022-08-05T03:29:13.541Z,19.67
2022-08-05T03:32:00.682Z,19.67
2022-08-05T03:34:53.518Z,19.72
2022-08-05T03:37:46.463Z,19.74
2022-08-05T03:40:32.094Z,19.73
2022-08-05T03:44:09.365Z,19.76
2022-08-05T03:46:15.099Z,19.77
2022-08-05T03:49:01.855Z,19.77
2022-08-05T03:52:38.978Z,19.79
2022-08-05T03:55:00.017Z,19.75
2022-08-05T03:57:55.356Z,19.75
2022-08-05T04:00:35.140Z,19.78
2022-08-05T04:03:28.377Z,19.80
2022-08-05T04:06:09.538Z,19.83
2022-08-05T04:08:48.800Z,19.78
2022-08-05T04:11:47.144Z,19.76
2022-08-05T04:14:30.008Z,19.76
2022-08-05T04:17:12.166Z,19.70
2022-08-05T04:19:54.541Z,19.72
2022-08-05T04:22:38.571Z,19.74
2022-08-05T04:25:19.808Z,19.71
2022-08-05T04:28:19.003Z,19.73
2022-08-05T04:31:02.172Z,19.89
2022-08-05T04:34:17.537Z,19.75
2022-08-05T04:36:52.345Z,19.70
2022-08-05T04:39:33.400Z,19.74
2022-08-05T04:42:16.198Z,19.92
2022-08-05T04:44:55.823Z,19.95
2022-08-05T04:47:42.749Z,19.88
2022-08-05T04:50:37.334Z,19.79
2022-08-05T04:53:24.286Z,19.88
2022-08-05T04:56:14.874Z,19.77
2022-08-05T04:59:21.512Z,19.75
2022-08-05T05:02:35.306Z,19.78
2022-08-05T05:05:16.857Z,19.80
2022-08-05T05:08:14.388Z,19.75
2022-08-05T05:11:12.278Z,19.78
2022-08-05T05:13:55.245Z,19.74
2022-08-05T05:16:38.178Z,19.97
2022-08-05T05:19:26.520Z,19.91
2022-08-05T05:22:23.782Z,19.96
2022-08-05T05:25:16.868Z,20.03
2022-08-05T05:27:57.055Z,20.01
2022-08-05T05:30:35.798Z,19.94
2022-08-05T05:33:16.909Z,19.89
2022-08-05T05:35:58.068Z,19.83
2022-08-05T05:38:41.430Z,20.01
2022-08-05T05:41:22.391Z,20.03
2022-08-05T05:44:04.123Z,20.11
2022-08-05T05:47:13.241Z,20.10
2022-08-05T05:50:01.471Z,20.16
2022-08-05T05:52:46.599Z,20.09
2022-08-05T05:55:51.727Z,20.17
2022-08-05T05:58:31.963Z,20.20
2022-08-05T06:01:15.200Z,20.23
2022-08-05T06:04:01.988Z,20.27
2022-08-05T06:06:48.810Z,20.31
2022-08-05T06:09:52.672Z,20.37
2022-08-05T06:12:27.938Z,20.31
2022-08-05T06:15:16.417Z,20.35
2022-08-05T06:18:04.798Z,20.35
2022-08-05T06:20:47.709Z,20.12
2022-08-05T06:23:43.850Z,20.16
2022-08-05T06:26:25.190Z,20.21
2022-08-05T06:29:49.650Z,20.04
2022-08-05T06:32:29.184Z,19.96
2022-08-05T06:35:15.466Z,19.61
2022-08-05T06:38:12.062Z,19.64
2022-08-05T06:40:52.906Z,19.58
2022-08-05T06:43:59.153Z,19.37
2022-08-05T06:46:33.259Z,19.47
2022-08-05T06:50:01.916Z,19.48
2022-08-05T06:52:38.260Z,19.38
2022-08-05T06:55:21.472Z,19.55
2022-08-05T06:58:19.701Z,19.55
2022-08-05T07:01:02.158Z,19.58
2022-08-05T07:03:41.507Z,19.63
2022-08-05T07:06:32.252Z,19.56
2022-08-05T07:09:12.829Z,19.63
2022-08-05T07:12:34.055Z,19.63
2022-08-05T07:16:01.082Z,19.62
2022-08-05T07:18:47.931Z,19.65
2022-08-05T07:21:28.667Z,19.61
2022-08-05T07:24:31.326Z,19.58
2022-08-05T07:27:15.686Z,19.60
2022-08-05T07:30:27.778Z,19.58
2022-08-05T07:32:56.029Z,19.56
2022-08-05T07:36:05.300Z,19.57
2022-08-05T07:38:43.703Z,19.56
2022-08-05T07:42:14.353Z,19.51
2022-08-05T07:44:25.191Z,19.56
2022-08-05T07:47:07.863Z,19.45
2022-08-05T07:49:54.236Z,19.52
2022-08-05T07:52:49.795Z,19.63
2022-08-05T07:56:04.847Z,19.67
2022-08-05T07:58:54.976Z,19.64
2022-08-05T08:01:35.015Z,19.71
2022-08-05T08:04:37.314Z,19.75
2022-08-05T08:07:22.428Z,19.80
2022-08-05T08:10:02.884Z,19.83
2022-08-05T08:12:49.471Z,19.90
2022-08-05T08:16:33.634Z,19.96
2022-08-05T08:18:49.894Z,20.00
2022-08-05T08:21:30.681Z,20.04
2022-08-05T08:24:13.825Z,20.10
2022-08-05T08:26:55.384Z,20.18
2022-08-05T08:30:04.005Z,20.09
2022-08-05T08:32:36.375Z,20.10
2022-08-05T08:35:21.656Z,20.21
2022-08-05T08:38:06.527Z,20.27
2022-08-05T08:40:51.599Z,20.35
2022-08-05T08:45:21.153Z,20.47
2022-08-05T08:46:37.375Z,20.50
2022-08-05T08:50:22.802Z,20.57
2022-08-05T08:52:25.643Z,20.65
2022-08-05T08:55:13.300Z,20.67
2022-08-05T08:57:58.021Z,20.76
2022-08-05T09:00:41.088Z,20.64
2022-08-05T09:03:22.030Z,20.73
2022-08-05T09:06:08.575Z,20.80
2022-08-05T09:08:52.111Z,20.80
2022-08-05T09:11:50.854Z,20.73
2022-08-05T09:14:57.272Z,20.77
2022-08-05T09:17:41.378Z,20.83
2022-08-05T09:20:37.417Z,20.83
2022-08-05T09:23:21.911Z,20.97
2022-08-05T09:26:09.779Z,21.03
2022-08-05T09:28:49.366Z,21.07
2022-08-05T09:32:40.656Z,21.07
2022-08-05T09:38:16.694Z,21.04
2022-08-05T09:40:36.183Z,21.04
2022-08-05T09:43:40.931Z,21.03
2022-08-05T09:46:35.389Z,21.07
2022-08-05T09:49:23.896Z,21.22
2022-08-05T09:52:27.501Z,21.17
2022-08-05T09:55:56.199Z,21.19
2022-08-05T09:58:12.708Z,21.23
2022-08-05T10:01:00.991Z,21.21
2022-08-05T10:03:59.557Z,21.32
2022-08-05T10:06:41.384Z,21.34
2022-08-05T10:09:44.857Z,21.45
2022-08-05T10:12:33.572Z,21.48
2022-08-05T10:15:20.273Z,21.45
2022-08-05T10:18:07.194Z,21.24
2022-08-05T10:20:49.539Z,21.29
2022-08-05T10:23:50.979Z,21.29
2022-08-05T10:26:33.921Z,21.10
2022-08-05T10:29:17.194Z,21.16
2022-08-05T10:32:52.807Z,21.04
2022-08-05T10:35:04.797Z,20.93
2022-08-05T10:37:45.908Z,20.81
2022-08-05T10:40:33.074Z,20.69
2022-08-05T10:43:23.239Z,20.63
2022-08-05T10:46:13.241Z,20.60
2022-08-05T10:49:02.736Z,20.59
2022-08-05T10:52:00.007Z,20.59
2022-08-05T10:55:03.529Z,20.58
2022-08-05T10:57:46.847Z,20.51
2022-08-05T11:00:32.839Z,20.61
2022-08-05T11:03:25.200Z,20.61
2022-08-05T11:06:15.931Z,20.64
2022-08-05T11:09:16.719Z,20.66
2022-08-05T11:11:59.044Z,20.69
2022-08-05T11:15:11.937Z,20.56
2022-08-05T11:17:59.924Z,20.76
2022-08-05T11:20:46.107Z,20.77
2022-08-05T11:24:03.149Z,20.77
2022-08-05T11:26:37.020Z,20.76
2022-08-05T11:29:37.312Z,20.83
2022-08-05T11:32:27.390Z,20.87
2022-08-05T11:35:08.021Z,20.83
2022-08-05T11:38:29.106Z,20.78
2022-08-05T11:41:35.310Z,20.78
2022-08-05T11:44:12.434Z,20.80
2022-08-05T11:47:11.260Z,20.83
2022-08-05T11:50:00.572Z,20.75
2022-08-05T11:52:44.083Z,20.65
2022-08-05T11:55:31.746Z,20.64
2022-08-05T11:58:13.013Z,20.65
2022-08-05T12:01:03.769Z,20.58
2022-08-05T12:03:55.802Z,20.43
2022-08-05T12:06:36.537Z,20.43
2022-08-05T12:09:20.439Z,20.23
2022-08-05T12:12:02.635Z,20.23
2022-08-05T12:14:47.264Z,20.21
2022-08-05T12:18:03.132Z,20.26
2022-08-05T12:20:49.060Z,20.16
2022-08-05T12:23:29.726Z,20.11
2022-08-05T12:26:11.521Z,20.09
2022-08-05T12:28:51.072Z,20.06
2022-08-05T12:31:40.613Z,20.12
2022-08-05T12:34:30.284Z,20.09
2022-08-05T12:37:17.152Z,20.09
2022-08-05T12:40:03.484Z,20.14
2022-08-05T12:42:50.374Z,20.21
2022-08-05T12:45:42.635Z,20.15
2022-08-05T12:48:39.248Z,20.33
2022-08-05T12:52:10.014Z,20.39
2022-08-05T12:54:26.522Z,20.43
2022-08-05T12:57:09.531Z,20.43
2022-08-05T13:01:58.266Z,20.54
2022-08-05T13:02:56.298Z,20.64
2022-08-05T13:05:38.774Z,20.71
2022-08-05T13:08:26.978Z,20.79
2022-08-05T13:11:07.758Z,20.85
2022-08-05T13:14:04.608Z,20.87
2022-08-05T13:16:53.676Z,20.92
2022-08-05T13:19:52.531Z,20.94
2022-08-05T13:22:33.867Z,20.99
2022-08-05T13:25:22.021Z,21.03
2022-08-05T13:28:04.001Z,21.06
2022-08-05T13:30:45.809Z,21.12
2022-08-05T13:34:21.666Z,21.16
2022-08-05T13:36:33.302Z,21.21
2022-08-05T13:39:24.573Z,21.28
2022-08-05T13:42:15.857Z,21.26
2022-08-05T13:44:56.333Z,21.33
2022-08-05T13:48:09.143Z,21.45
2022-08-05T13:50:52.396Z,21.53
2022-08-05T13:53:35.097Z,21.66
2022-08-05T13:56:28.248Z,21.82
2022-08-05T13:59:19.517Z,21.99
2022-08-05T14:02:03.307Z,22.12
2022-08-05T14:05:01.563Z,22.31
2022-08-05T14:07:59.774Z,22.43
2022-08-05T14:10:46.903Z,22.55
2022-08-05T14:13:26.452Z,22.59
2022-08-05T14:16:11.367Z,22.70
2022-08-05T14:19:04.802Z,22.80
2022-08-05T14:22:09.724Z,22.95
2022-08-05T14:24:46.689Z,22.92
2022-08-05T14:27:28.360Z,23.00
2022-08-05T14:30:20.197Z,23.02
2022-08-05T14:33:01.519Z,23.14
2022-08-05T14:35:50.510Z,23.20
2022-08-05T14:38:36.041Z,23.24
2022-08-05T14:41:18.682Z,23.24
2022-08-05T14:44:00.169Z,23.08
2022-08-05T14:47:23.942Z,22.99
2022-08-05T14:50:21.470Z,23.03
2022-08-05T14:53:02.470Z,23.11
2022-08-05T14:56:08.006Z,23.12
2022-08-05T14:58:47.562Z,23.07
2022-08-05T15:01:47.262Z,23.03
2022-08-05T15:04:32.388Z,23.12
2022-08-05T15:08:08.865Z,22.98
2022-08-05T15:10:17.502Z,22.98
2022-08-05T15:13:12.045Z,23.00
2022-08-05T15:15:56.519Z,23.00
2022-08-05T15:18:36.444Z,22.96
2022-08-05T15:21:21.099Z,23.03
2022-08-05T15:24:02.855Z,23.00
2022-08-05T15:26:45.249Z,22.89
2022-08-05T15:29:30.279Z,23.00
2022-08-05T15:32:13.246Z,23.10
2022-08-05T15:34:58.405Z,23.16
2022-08-05T15:38:32.988Z,23.21
2022-08-05T15:41:22.533Z,23.19
2022-08-05T15:43:58.700Z,23.11
2022-08-05T15:46:39.616Z,23.12
2022-08-05T15:49:53.344Z,23.05
2022-08-05T15:52:52.196Z,23.01
2022-08-05T15:56:29.056Z,22.99
2022-08-05T15:59:21.912Z,22.98
2022-08-05T16:02:02.594Z,23.03
2022-08-05T16:04:50.347Z,22.87
2022-08-05T16:07:33.064Z,22.82
2022-08-05T16:10:11.919Z,22.72
2022-08-05T16:12:56.164Z,22.71
2022-08-05T16:15:37.713Z,22.75
2022-08-05T16:18:28.074Z,22.67
2022-08-05T16:21:09.545Z,22.60
2022-08-05T16:23:53.835Z,22.56
2022-08-05T16:26:52.125Z,22.53
2022-08-05T16:29:37.019Z,22.57
2022-08-05T16:32:17.546Z,22.53
2022-08-05T16:35:09.600Z,22.56
2022-08-05T16:38:02.468Z,22.51
2022-08-05T16:41:00.545Z,22.31
2022-08-05T16:43:42.679Z,22.35
2022-08-05T16:46:25.034Z,22.33
2022-08-05T16:49:05.360Z,22.41
2022-08-05T16:51:51.183Z,22.44
2022-08-05T16:54:37.253Z,22.33
2022-08-05T16:57:50.461Z,22.29
2022-08-05T17:00:34.524Z,22.15
2022-08-05T17:03:20.574Z,22.03
2022-08-05T17:06:02.175Z,21.90
2022-08-05T17:08:52.165Z,21.75
2022-08-05T17:11:35.906Z,21.66
2022-08-05T17:14:37.083Z,21.56
2022-08-05T17:17:19.602Z,21.45
2022-08-05T17:19:59.978Z,21.45
2022-08-05T17:22:39.693Z,21.14
2022-08-05T17:25:33.421Z,21.02
2022-08-05T17:28:15.600Z,20.90
2022-08-05T17:30:58.802Z,20.87
2022-08-05T17:33:48.399Z,20.83
2022-08-05T17:36:34.028Z,20.69
2022-08-05T17:39:24.294Z,20.61
2022-08-05T17:42:17.669Z,20.47
2022-08-05T17:45:00.689Z,20.37
2022-08-05T17:47:58.938Z,20.29
2022-08-05T17:50:40.406Z,20.21
2022-08-05T17:53:25.768Z,20.11
2022-08-05T17:56:12.837Z,20.06
2022-08-05T17:59:21.052Z,19.97
2022-08-05T18:02:03.692Z,19.87
2022-08-05T18:04:53.267Z,19.82
2022-08-05T18:07:41.351Z,19.75
2022-08-05T18:10:33.632Z,19.67
2022-08-05T18:13:13.409Z,19.66
2022-08-05T18:15:53.684Z,19.61
2022-08-05T18:18:39.797Z,19.56
2022-08-05T18:21:26.173Z,19.54
2022-08-05T18:24:50.497Z,19.53
2022-08-05T18:27:31.521Z,19.47
2022-08-05T18:30:22.620Z,19.42
2022-08-05T18:33:22.573Z,19.28
2022-08-05T18:36:05.338Z,19.30
2022-08-05T18:38:52.129Z,19.12
2022-08-05T18:42:14.002Z,18.95
2022-08-05T18:44:56.629Z,18.85
2022-08-05T18:47:38.001Z,18.78
2022-08-05T18:50:42.180Z,18.60
2022-08-05T18:53:25.742Z,18.70
2022-08-05T18:56:12.492Z,18.65
2022-08-05T18:58:54.822Z,18.58
2022-08-05T19:01:47.598Z,18.51
2022-08-05T19:05:01.108Z,18.42
2022-08-05T19:07:46.349Z,18.38
2022-08-05T19:10:28.681Z,18.28
2022-08-05T19:13:12.298Z,18.20
2022-08-05T19:16:03.231Z,18.12
2022-08-05T19:18:43.543Z,18.05
2022-08-05T19:21:23.576Z,18.05
2022-08-05T19:24:06.596Z,18.02
2022-08-05T19:26:55.347Z,17.93
2022-08-05T19:29:35.898Z,17.83
2022-08-05T19:32:19.058Z,17.75
2022-08-05T19:34:58.438Z,17.68
2022-08-05T19:38:04.293Z,17.60
2022-08-05T19:40:50.894Z,17.48
2022-08-05T19:44:04.685Z,17.38
2022-08-05T19:46:32.953Z,17.34
2022-08-05T19:49:16.892Z,17.24
2022-08-05T19:52:08.924Z,17.21
2022-08-05T19:55:08.907Z,17.14
2022-08-05T19:58:28.731Z,17.05
2022-08-05T20:01:05.591Z,16.98
2022-08-05T20:03:57.585Z,16.94
2022-08-05T20:06:45.773Z,16.87
2022-08-05T20:09:26.105Z,16.86
2022-08-05T20:12:11.096Z,16.75
2022-08-05T20:14:52.730Z,16.74
2022-08-05T20:17:36.421Z,16.70
2022-08-05T20:20:17.464Z,16.66
2022-08-05T20:22:58.366Z,16.60
2022-08-05T20:25:39.980Z,16.55
2022-08-05T20:28:21.713Z,16.51
2022-08-05T20:31:02.307Z,16.48
2022-08-05T20:33:55.554Z,16.46
2022-08-05T20:36:35.229Z,16.41
2022-08-05T20:39:19.883Z,16.33
2022-08-05T20:42:05.209Z,16.34
2022-08-05T20:44:44.501Z,16.30
2022-08-05T20:47:32.366Z,16.16
2022-08-05T20:50:12.350Z,16.11
2022-08-05T20:52:52.585Z,16.06
2022-08-05T20:55:55.733Z,16.01
2022-08-05T20:58:39.626Z,15.96
2022-08-05T21:01:38.654Z,15.95
2022-08-05T21:04:21.393Z,15.81
2022-08-05T21:07:08.966Z,15.79
2022-08-05T21:09:53.874Z,15.70
2022-08-05T21:13:08.782Z,15.66
2022-08-05T21:15:51.234Z,15.57
2022-08-05T21:18:31.917Z,15.55
2022-08-05T21:21:12.660Z,15.50
2022-08-05T21:23:53.141Z,15.39
2022-08-05T21:26:32.925Z,15.39
2022-08-05T21:29:16.693Z,15.35
2022-08-05T21:31:56.473Z,15.30
2022-08-05T21:34:38.658Z,15.25
2022-08-05T21:37:24.481Z,15.23
2022-08-05T21:40:07.286Z,15.23
2022-08-05T21:43:17.835Z,15.19
2022-08-05T21:46:05.460Z,15.18
2022-08-05T21:48:48.864Z,15.11
2022-08-05T21:52:22.260Z,15.07
2022-08-05T21:54:32.764Z,15.01
2022-08-05T21:57:32.986Z,14.99
2022-08-05T22:00:14.704Z,14.96
2022-08-05T22:02:55.098Z,14.92
2022-08-05T22:05:49.053Z,14.89
2022-08-05T22:08:28.850Z,14.88
2022-08-05T22:11:09.112Z,14.85
2022-08-05T22:14:32.445Z,14.79
2022-08-05T22:16:56.883Z,14.66
2022-08-05T22:20:00.580Z,14.65
2022-08-05T22:22:54.398Z,14.63
2022-08-05T22:26:10.149Z,14.62
2022-08-05T22:28:51.649Z,14.56
2022-08-05T22:31:44.840Z,14.51
2022-08-05T22:34:28.725Z,14.49
2022-08-05T22:37:10.147Z,14.46
2022-08-05T22:39:51.100Z,14.40
2022-08-05T22:42:36.538Z,14.35
2022-08-05T22:45:21.127Z,14.30
2022-08-05T22:48:02.340Z,14.25
2022-08-05T22:50:46.154Z,14.22
2022-08-05T22:53:37.233Z,14.22
2022-08-05T22:56:30.441Z,14.16
2022-08-05T22:59:42.952Z,14.11
2022-08-05T23:02:29.615Z,14.10
2022-08-05T23:05:10.410Z,14.05
2022-08-05T23:07:53.434Z,14.01
2022-08-05T23:10:33.520Z,13.95
2022-08-05T23:13:16.038Z,13.94
2022-08-05T23:16:08.051Z,13.96
2022-08-05T23:18:47.556Z,13.89
2022-08-05T23:21:42.885Z,13.88
2022-08-05T23:24:27.974Z,13.87
2022-08-05T23:27:07.864Z,13.86
2022-08-05T23:29:49.285Z,13.85
2022-08-05T23:32:31.909Z,13.83
2022-08-05T23:35:28.549Z,13.82
2022-08-05T23:38:15.463Z,13.77
2022-08-05T23:40:55.998Z,13.77
2022-08-05T23:44:05.366Z,13.71
2022-08-05T23:46:37.442Z,13.70
2022-08-05T23:49:25.511Z,13.52
2022-08-05T23:52:35.751Z,13.46
2022-08-05T23:55:17.048Z,13.30
2022-08-05T23:57:58.480Z,13.42
